TRADE22 KMRY-KGCN
Flight info
| Callsign | TRADE22 |
|---|---|
| Flight time | 2h 14m |
| Altitude | 27000 |
| Route | MRY5 SHOEY SNS J126 ROBIE J6 HEC J64 PGS BISOP |
| Aircraft | P46T/L-SBDGRWY/SB1 |
Departure
| Time | 2026-04-30 06:39 |
|---|---|
| Airport | Monterey Regional Airport (KMRY) |
Arrival
| Time | 2026-04-30 08:54 |
|---|---|
| Airport | Grand Canyon National Park Airport (KGCN) |
| Time | Latitude | Longitude | Altitude | Speed | Heading |
|---|---|---|---|---|---|
| 2026-04-30 06:13 | 36.58894 | -121.85422 | 210 ft | 0 kts | 293° |
| 2026-04-30 06:34 | 36.58895 | -121.85425 | 204 ft | 2 kts | 311° |
| 2026-04-30 06:34 | 36.58913 | -121.85380 | 204 ft | 13 kts | 101° |
| 2026-04-30 06:35 | 36.58884 | -121.85232 | 205 ft | 20 kts | 110° |
| 2026-04-30 06:35 | 36.58833 | -121.85075 | 204 ft | 20 kts | 111° |
| 2026-04-30 06:35 | 36.58784 | -121.84926 | 213 ft | 20 kts | 112° |
| 2026-04-30 06:35 | 36.58729 | -121.84767 | 210 ft | 20 kts | 112° |
| 2026-04-30 06:36 | 36.58666 | -121.84613 | 211 ft | 20 kts | 121° |
| 2026-04-30 06:36 | 36.58608 | -121.84456 | 210 ft | 20 kts | 115° |
| 2026-04-30 06:36 | 36.58556 | -121.84296 | 213 ft | 20 kts | 113° |
| 2026-04-30 06:36 | 36.58501 | -121.84137 | 204 ft | 20 kts | 112° |
| 2026-04-30 06:37 | 36.58448 | -121.83977 | 205 ft | 20 kts | 113° |
| 2026-04-30 06:37 | 36.58393 | -121.83818 | 205 ft | 20 kts | 113° |
| 2026-04-30 06:37 | 36.58340 | -121.83658 | 205 ft | 20 kts | 112° |
| 2026-04-30 06:37 | 36.58288 | -121.83498 | 204 ft | 20 kts | 103° |
| 2026-04-30 06:38 | 36.58320 | -121.83350 | 204 ft | 17 kts | 359° |
| 2026-04-30 06:38 | 36.58397 | -121.83543 | 205 ft | 48 kts | 290° |
| 2026-04-30 06:38 | 36.58598 | -121.84139 | 204 ft | 98 kts | 292° |
| 2026-04-30 06:38 | 36.58901 | -121.85040 | 225 ft | 125 kts | 292° |
| 2026-04-30 06:39 | 36.59296 | -121.86064 | 334 ft | 145 kts | 296° |
| 2026-04-30 06:39 | 36.59607 | -121.87263 | 823 ft | 144 kts | 282° |
| 2026-04-30 06:39 | 36.59887 | -121.88435 | 1449 ft | 138 kts | 294° |
| 2026-04-30 06:39 | 36.60447 | -121.89402 | 1888 ft | 140 kts | 311° |
| 2026-04-30 06:40 | 36.61054 | -121.90354 | 2369 ft | 141 kts | 309° |
| 2026-04-30 06:40 | 36.61641 | -121.91335 | 2867 ft | 141 kts | 309° |
| 2026-04-30 06:40 | 36.62211 | -121.92305 | 3347 ft | 141 kts | 309° |
| 2026-04-30 06:40 | 36.62791 | -121.93295 | 3793 ft | 143 kts | 308° |
| 2026-04-30 06:41 | 36.63380 | -121.94305 | 4230 ft | 145 kts | 308° |
| 2026-04-30 06:41 | 36.63978 | -121.95330 | 4659 ft | 149 kts | 308° |
| 2026-04-30 06:41 | 36.64594 | -121.96386 | 5077 ft | 152 kts | 308° |
| 2026-04-30 06:41 | 36.65222 | -121.97464 | 5492 ft | 155 kts | 307° |
| 2026-04-30 06:42 | 36.65856 | -121.98554 | 5914 ft | 156 kts | 307° |
| 2026-04-30 06:42 | 36.66499 | -121.99658 | 6342 ft | 158 kts | 307° |
| 2026-04-30 06:42 | 36.67151 | -122.00777 | 6752 ft | 160 kts | 307° |
| 2026-04-30 06:42 | 36.67808 | -122.01906 | 7147 ft | 162 kts | 308° |
| 2026-04-30 06:43 | 36.68510 | -122.03002 | 7539 ft | 162 kts | 322° |
| 2026-04-30 06:43 | 36.69502 | -122.03629 | 7938 ft | 160 kts | 348° |
| 2026-04-30 06:43 | 36.70584 | -122.03670 | 8343 ft | 158 kts | 13° |
| 2026-04-30 06:43 | 36.71576 | -122.03127 | 8752 ft | 156 kts | 38° |
| 2026-04-30 06:44 | 36.72284 | -122.02110 | 9151 ft | 156 kts | 63° |
| 2026-04-30 06:44 | 36.72575 | -122.00812 | 9596 ft | 157 kts | 86° |
| 2026-04-30 06:44 | 36.72436 | -121.99456 | 10023 ft | 159 kts | 100° |
| 2026-04-30 06:44 | 36.72229 | -121.98096 | 10409 ft | 160 kts | 99° |
| 2026-04-30 06:45 | 36.72021 | -121.96724 | 10790 ft | 162 kts | 98° |
| 2026-04-30 06:45 | 36.71809 | -121.95340 | 11168 ft | 163 kts | 98° |
| 2026-04-30 06:45 | 36.71594 | -121.93942 | 11549 ft | 165 kts | 98° |
| 2026-04-30 06:45 | 36.71380 | -121.92550 | 11927 ft | 167 kts | 98° |
| 2026-04-30 06:46 | 36.71161 | -121.91127 | 12307 ft | 168 kts | 97° |
| 2026-04-30 06:46 | 36.70940 | -121.89686 | 12688 ft | 170 kts | 97° |
| 2026-04-30 06:46 | 36.70715 | -121.88228 | 13071 ft | 172 kts | 97° |
| 2026-04-30 06:46 | 36.70489 | -121.86760 | 13406 ft | 173 kts | 96° |
| 2026-04-30 06:47 | 36.70260 | -121.85276 | 13786 ft | 175 kts | 96° |
| 2026-04-30 06:47 | 36.70029 | -121.83784 | 14131 ft | 177 kts | 96° |
| 2026-04-30 06:47 | 36.69992 | -121.83540 | 14186 ft | 177 kts | 96° |
| 2026-04-30 06:47 | 36.69898 | -121.82937 | 14321 ft | 177 kts | 96° |
| 2026-04-30 06:48 | 36.69664 | -121.81423 | 14651 ft | 179 kts | 96° |
| 2026-04-30 06:48 | 36.69428 | -121.79898 | 14991 ft | 180 kts | 96° |
| 2026-04-30 06:48 | 36.69190 | -121.78357 | 15317 ft | 182 kts | 96° |
| 2026-04-30 06:48 | 36.68948 | -121.76801 | 15653 ft | 184 kts | 96° |
| 2026-04-30 06:49 | 36.68704 | -121.75231 | 15989 ft | 185 kts | 96° |
| 2026-04-30 06:49 | 36.68459 | -121.73650 | 16322 ft | 187 kts | 96° |
| 2026-04-30 06:49 | 36.68221 | -121.72119 | 16641 ft | 188 kts | 96° |
| 2026-04-30 06:49 | 36.67968 | -121.70492 | 16983 ft | 190 kts | 96° |
| 2026-04-30 06:50 | 36.67719 | -121.68897 | 17305 ft | 191 kts | 96° |
| 2026-04-30 06:50 | 36.67465 | -121.67265 | 17636 ft | 192 kts | 96° |
| 2026-04-30 06:50 | 36.67209 | -121.65624 | 17965 ft | 194 kts | 96° |
| 2026-04-30 06:50 | 36.66949 | -121.63963 | 18295 ft | 195 kts | 96° |
| 2026-04-30 06:51 | 36.66688 | -121.62296 | 18587 ft | 197 kts | 96° |
| 2026-04-30 06:51 | 36.66197 | -121.60680 | 18859 ft | 204 kts | 117° |
| 2026-04-30 06:51 | 36.65253 | -121.59334 | 19136 ft | 210 kts | 139° |
| 2026-04-30 06:51 | 36.64049 | -121.58278 | 19422 ft | 211 kts | 143° |
| 2026-04-30 06:52 | 36.62848 | -121.57221 | 19719 ft | 212 kts | 142° |
| 2026-04-30 06:52 | 36.61645 | -121.56161 | 19989 ft | 214 kts | 142° |
| 2026-04-30 06:52 | 36.60427 | -121.55092 | 20269 ft | 215 kts | 142° |
| 2026-04-30 06:52 | 36.59200 | -121.54015 | 20547 ft | 216 kts | 142° |
| 2026-04-30 06:53 | 36.57979 | -121.52944 | 20822 ft | 218 kts | 142° |
| 2026-04-30 06:53 | 36.56740 | -121.51857 | 21102 ft | 219 kts | 142° |
| 2026-04-30 06:53 | 36.55487 | -121.50758 | 21387 ft | 221 kts | 142° |
| 2026-04-30 06:53 | 36.54227 | -121.49654 | 21658 ft | 222 kts | 142° |
| 2026-04-30 06:54 | 36.52957 | -121.48542 | 21934 ft | 224 kts | 142° |
| 2026-04-30 06:54 | 36.51681 | -121.47425 | 22207 ft | 225 kts | 142° |
| 2026-04-30 06:54 | 36.50400 | -121.46303 | 22478 ft | 226 kts | 142° |
| 2026-04-30 06:54 | 36.49106 | -121.45172 | 22748 ft | 228 kts | 142° |
| 2026-04-30 06:55 | 36.47810 | -121.44038 | 23014 ft | 229 kts | 142° |
| 2026-04-30 06:55 | 36.46508 | -121.42900 | 23313 ft | 228 kts | 142° |
| 2026-04-30 06:55 | 36.45206 | -121.41761 | 23599 ft | 229 kts | 142° |
| 2026-04-30 06:55 | 36.43898 | -121.40619 | 23860 ft | 230 kts | 142° |
| 2026-04-30 06:56 | 36.42582 | -121.39470 | 24108 ft | 231 kts | 142° |
| 2026-04-30 06:56 | 36.41265 | -121.38321 | 24365 ft | 232 kts | 142° |
| 2026-04-30 06:56 | 36.39942 | -121.37167 | 24616 ft | 232 kts | 142° |
| 2026-04-30 06:56 | 36.38614 | -121.36009 | 24873 ft | 233 kts | 142° |
| 2026-04-30 06:57 | 36.37285 | -121.34851 | 25127 ft | 234 kts | 142° |
| 2026-04-30 06:57 | 36.35953 | -121.33690 | 25376 ft | 234 kts | 141° |
| 2026-04-30 06:57 | 36.34630 | -121.32538 | 25621 ft | 235 kts | 141° |
| 2026-04-30 06:57 | 36.33291 | -121.31373 | 25858 ft | 236 kts | 141° |
| 2026-04-30 06:58 | 36.31945 | -121.30201 | 26092 ft | 237 kts | 141° |
| 2026-04-30 06:58 | 36.30595 | -121.29027 | 26330 ft | 237 kts | 141° |
| 2026-04-30 06:58 | 36.29240 | -121.27849 | 26564 ft | 238 kts | 141° |
| 2026-04-30 06:58 | 36.27881 | -121.26669 | 26804 ft | 239 kts | 141° |
| 2026-04-30 06:59 | 36.26521 | -121.25487 | 27044 ft | 239 kts | 141° |
| 2026-04-30 06:59 | 36.25134 | -121.24282 | 27111 ft | 249 kts | 142° |
| 2026-04-30 06:59 | 36.23691 | -121.23030 | 27116 ft | 258 kts | 142° |
| 2026-04-30 06:59 | 36.22199 | -121.21742 | 27111 ft | 264 kts | 142° |
| 2026-04-30 07:00 | 36.20677 | -121.20425 | 27116 ft | 269 kts | 142° |
| 2026-04-30 07:00 | 36.19135 | -121.19090 | 27112 ft | 272 kts | 142° |
| 2026-04-30 07:00 | 36.17574 | -121.17738 | 27112 ft | 275 kts | 142° |
| 2026-04-30 07:00 | 36.16000 | -121.16376 | 27114 ft | 277 kts | 142° |
| 2026-04-30 07:01 | 36.14436 | -121.15023 | 27109 ft | 278 kts | 142° |
| 2026-04-30 07:01 | 36.12847 | -121.13650 | 27105 ft | 279 kts | 142° |
| 2026-04-30 07:01 | 36.11255 | -121.12273 | 27108 ft | 280 kts | 142° |
| 2026-04-30 07:01 | 36.09654 | -121.10890 | 27107 ft | 281 kts | 142° |
| 2026-04-30 07:02 | 36.08049 | -121.09505 | 27109 ft | 281 kts | 142° |
| 2026-04-30 07:02 | 36.06443 | -121.08118 | 27106 ft | 281 kts | 142° |
| 2026-04-30 07:02 | 36.04838 | -121.06733 | 27105 ft | 282 kts | 142° |
| 2026-04-30 07:02 | 36.03276 | -121.05386 | 27107 ft | 282 kts | 142° |
| 2026-04-30 07:03 | 36.01630 | -121.03967 | 27103 ft | 282 kts | 142° |
| 2026-04-30 07:03 | 36.00019 | -121.02580 | 27098 ft | 282 kts | 142° |
| 2026-04-30 07:03 | 35.98577 | -121.01017 | 27085 ft | 277 kts | 127° |
| 2026-04-30 07:03 | 35.97517 | -120.99065 | 27086 ft | 271 kts | 111° |
| 2026-04-30 07:04 | 35.96831 | -120.96917 | 27091 ft | 268 kts | 105° |
| 2026-04-30 07:04 | 35.96170 | -120.94764 | 27081 ft | 268 kts | 107° |
| 2026-04-30 07:04 | 35.95480 | -120.92627 | 27079 ft | 268 kts | 107° |
| 2026-04-30 07:04 | 35.94790 | -120.90494 | 27087 ft | 268 kts | 107° |
| 2026-04-30 07:05 | 35.93424 | -120.86217 | 27088 ft | 268 kts | 107° |
| 2026-04-30 07:05 | 35.92738 | -120.84079 | 27087 ft | 268 kts | 107° |
| 2026-04-30 07:05 | 35.92052 | -120.81939 | 27086 ft | 268 kts | 107° |
| 2026-04-30 07:06 | 35.91365 | -120.79801 | 27077 ft | 268 kts | 107° |
| 2026-04-30 07:06 | 35.90679 | -120.77667 | 27085 ft | 268 kts | 107° |
| 2026-04-30 07:06 | 35.89992 | -120.75528 | 27079 ft | 268 kts | 107° |
| 2026-04-30 07:06 | 35.89305 | -120.73397 | 27083 ft | 267 kts | 107° |
| 2026-04-30 07:07 | 35.88620 | -120.71267 | 27085 ft | 267 kts | 107° |
| 2026-04-30 07:07 | 35.87941 | -120.69159 | 27084 ft | 267 kts | 107° |
| 2026-04-30 07:07 | 35.87251 | -120.67022 | 27084 ft | 268 kts | 107° |
| 2026-04-30 07:07 | 35.86565 | -120.64894 | 27084 ft | 267 kts | 107° |
| 2026-04-30 07:08 | 35.85877 | -120.62764 | 27095 ft | 267 kts | 107° |
| 2026-04-30 07:08 | 35.85192 | -120.60641 | 27099 ft | 267 kts | 107° |
| 2026-04-30 07:08 | 35.84505 | -120.58518 | 27099 ft | 266 kts | 107° |
| 2026-04-30 07:08 | 35.83818 | -120.56398 | 27098 ft | 266 kts | 107° |
| 2026-04-30 07:09 | 35.83132 | -120.54277 | 27098 ft | 266 kts | 107° |
| 2026-04-30 07:09 | 35.82447 | -120.52162 | 27099 ft | 266 kts | 107° |
| 2026-04-30 07:09 | 35.81992 | -120.50761 | 27096 ft | 266 kts | 107° |
| 2026-04-30 07:09 | 35.81073 | -120.47928 | 27088 ft | 266 kts | 107° |
| 2026-04-30 07:10 | 35.80396 | -120.45843 | 27095 ft | 266 kts | 107° |
| 2026-04-30 07:10 | 35.79710 | -120.43731 | 27095 ft | 266 kts | 107° |
| 2026-04-30 07:10 | 35.79022 | -120.41618 | 27088 ft | 266 kts | 107° |
| 2026-04-30 07:10 | 35.78335 | -120.39506 | 27094 ft | 266 kts | 108° |
| 2026-04-30 07:11 | 35.77878 | -120.38103 | 27090 ft | 266 kts | 108° |
| 2026-04-30 07:11 | 35.77189 | -120.35988 | 27093 ft | 266 kts | 108° |
| 2026-04-30 07:11 | 35.76499 | -120.33871 | 27090 ft | 267 kts | 108° |
| 2026-04-30 07:11 | 35.75805 | -120.31745 | 27080 ft | 267 kts | 108° |
| 2026-04-30 07:12 | 35.75113 | -120.29627 | 27084 ft | 267 kts | 108° |
| 2026-04-30 07:12 | 35.74420 | -120.27506 | 27072 ft | 267 kts | 108° |
| 2026-04-30 07:12 | 35.73730 | -120.25389 | 27078 ft | 266 kts | 108° |
| 2026-04-30 07:12 | 35.73039 | -120.23277 | 27075 ft | 266 kts | 108° |
| 2026-04-30 07:13 | 35.72353 | -120.21186 | 27067 ft | 265 kts | 108° |
| 2026-04-30 07:13 | 35.71663 | -120.19078 | 27065 ft | 266 kts | 108° |
| 2026-04-30 07:13 | 35.70971 | -120.16967 | 27052 ft | 266 kts | 108° |
| 2026-04-30 07:13 | 35.70278 | -120.14858 | 27053 ft | 266 kts | 108° |
| 2026-04-30 07:14 | 35.69587 | -120.12755 | 27054 ft | 265 kts | 108° |
| 2026-04-30 07:14 | 35.68896 | -120.10653 | 27056 ft | 265 kts | 108° |
| 2026-04-30 07:14 | 35.68204 | -120.08551 | 27054 ft | 265 kts | 108° |
| 2026-04-30 07:14 | 35.67511 | -120.06444 | 27052 ft | 266 kts | 108° |
| 2026-04-30 07:15 | 35.66818 | -120.04341 | 27051 ft | 265 kts | 108° |
| 2026-04-30 07:15 | 35.66125 | -120.02236 | 27049 ft | 266 kts | 108° |
| 2026-04-30 07:15 | 35.65430 | -120.00129 | 27048 ft | 266 kts | 108° |
| 2026-04-30 07:15 | 35.64729 | -119.98024 | 27044 ft | 266 kts | 110° |
| 2026-04-30 07:16 | 35.63844 | -119.96019 | 27057 ft | 268 kts | 116° |
| 2026-04-30 07:16 | 35.62922 | -119.94024 | 27041 ft | 268 kts | 115° |
| 2026-04-30 07:16 | 35.62010 | -119.92022 | 27046 ft | 268 kts | 115° |
| 2026-04-30 07:16 | 35.61099 | -119.90020 | 27043 ft | 268 kts | 115° |
| 2026-04-30 07:17 | 35.60197 | -119.88049 | 27049 ft | 268 kts | 115° |
| 2026-04-30 07:17 | 35.59283 | -119.86056 | 27051 ft | 267 kts | 115° |
| 2026-04-30 07:17 | 35.57457 | -119.82075 | 27031 ft | 268 kts | 116° |
| 2026-04-30 07:18 | 35.56541 | -119.80080 | 27038 ft | 268 kts | 116° |
| 2026-04-30 07:18 | 35.55624 | -119.78084 | 27037 ft | 268 kts | 116° |
| 2026-04-30 07:18 | 35.54708 | -119.76090 | 27034 ft | 268 kts | 116° |
| 2026-04-30 07:18 | 35.53791 | -119.74094 | 27029 ft | 268 kts | 116° |
| 2026-04-30 07:19 | 35.52873 | -119.72098 | 27030 ft | 268 kts | 116° |
| 2026-04-30 07:19 | 35.51960 | -119.70114 | 27024 ft | 268 kts | 116° |
| 2026-04-30 07:19 | 35.51042 | -119.68119 | 27023 ft | 268 kts | 116° |
| 2026-04-30 07:19 | 35.50123 | -119.66125 | 27027 ft | 268 kts | 116° |
| 2026-04-30 07:20 | 35.49215 | -119.64155 | 27029 ft | 268 kts | 116° |
| 2026-04-30 07:20 | 35.48297 | -119.62163 | 27028 ft | 268 kts | 116° |
| 2026-04-30 07:20 | 35.47378 | -119.60168 | 27028 ft | 268 kts | 116° |
| 2026-04-30 07:20 | 35.46462 | -119.58182 | 27025 ft | 268 kts | 116° |
| 2026-04-30 07:21 | 35.45542 | -119.56193 | 27020 ft | 268 kts | 116° |
| 2026-04-30 07:21 | 35.44622 | -119.54204 | 27019 ft | 267 kts | 116° |
| 2026-04-30 07:21 | 35.43703 | -119.52221 | 27019 ft | 267 kts | 116° |
| 2026-04-30 07:21 | 35.42784 | -119.50237 | 27013 ft | 267 kts | 116° |
| 2026-04-30 07:22 | 35.40946 | -119.46267 | 27009 ft | 267 kts | 116° |
| 2026-04-30 07:22 | 35.40027 | -119.44286 | 27009 ft | 267 kts | 116° |
| 2026-04-30 07:22 | 35.39119 | -119.42329 | 27012 ft | 267 kts | 116° |
| 2026-04-30 07:23 | 35.38199 | -119.40346 | 27012 ft | 267 kts | 116° |
| 2026-04-30 07:23 | 35.37278 | -119.38365 | 27011 ft | 267 kts | 116° |
| 2026-04-30 07:23 | 35.36358 | -119.36385 | 27007 ft | 267 kts | 116° |
| 2026-04-30 07:23 | 35.35438 | -119.34406 | 27006 ft | 267 kts | 116° |
| 2026-04-30 07:24 | 35.34518 | -119.32428 | 27003 ft | 267 kts | 116° |
| 2026-04-30 07:24 | 35.33598 | -119.30451 | 27008 ft | 267 kts | 116° |
| 2026-04-30 07:24 | 35.32680 | -119.28480 | 27015 ft | 266 kts | 116° |
| 2026-04-30 07:24 | 35.31762 | -119.26508 | 27014 ft | 266 kts | 116° |
| 2026-04-30 07:25 | 35.30843 | -119.24539 | 27012 ft | 266 kts | 117° |
| 2026-04-30 07:25 | 35.29924 | -119.22569 | 27010 ft | 266 kts | 117° |
| 2026-04-30 07:25 | 35.29003 | -119.20599 | 27007 ft | 266 kts | 116° |
| 2026-04-30 07:25 | 35.28095 | -119.18655 | 27002 ft | 266 kts | 117° |
| 2026-04-30 07:26 | 35.27174 | -119.16684 | 27006 ft | 266 kts | 117° |
| 2026-04-30 07:26 | 35.26254 | -119.14718 | 27006 ft | 266 kts | 117° |
| 2026-04-30 07:26 | 35.25334 | -119.12752 | 27007 ft | 266 kts | 117° |
| 2026-04-30 07:26 | 35.24413 | -119.10784 | 27004 ft | 266 kts | 117° |
| 2026-04-30 07:27 | 35.23491 | -119.08816 | 27005 ft | 266 kts | 117° |
| 2026-04-30 07:27 | 35.22570 | -119.06850 | 27009 ft | 266 kts | 117° |
| 2026-04-30 07:27 | 35.21648 | -119.04885 | 27021 ft | 266 kts | 117° |
| 2026-04-30 07:27 | 35.20760 | -119.02993 | 27020 ft | 266 kts | 117° |
| 2026-04-30 07:28 | 35.19956 | -119.01283 | 27027 ft | 266 kts | 117° |
| 2026-04-30 07:28 | 35.19028 | -118.99308 | 27033 ft | 265 kts | 117° |
| 2026-04-30 07:28 | 35.18111 | -118.97354 | 27027 ft | 265 kts | 117° |
| 2026-04-30 07:28 | 35.17190 | -118.95395 | 27023 ft | 265 kts | 117° |
| 2026-04-30 07:29 | 35.16283 | -118.93468 | 27022 ft | 265 kts | 117° |
| 2026-04-30 07:29 | 35.15363 | -118.91514 | 27016 ft | 266 kts | 117° |
| 2026-04-30 07:29 | 35.14441 | -118.89558 | 27027 ft | 266 kts | 117° |
| 2026-04-30 07:29 | 35.13518 | -118.87601 | 27027 ft | 266 kts | 117° |
| 2026-04-30 07:30 | 35.11660 | -118.83664 | 27042 ft | 266 kts | 117° |
| 2026-04-30 07:30 | 35.10748 | -118.81731 | 27049 ft | 266 kts | 117° |
| 2026-04-30 07:30 | 35.09822 | -118.79772 | 27052 ft | 266 kts | 117° |
| 2026-04-30 07:31 | 35.08896 | -118.77813 | 27063 ft | 266 kts | 117° |
| 2026-04-30 07:31 | 35.07971 | -118.75856 | 27071 ft | 266 kts | 117° |
| 2026-04-30 07:31 | 35.07045 | -118.73901 | 27077 ft | 265 kts | 117° |
| 2026-04-30 07:31 | 35.06122 | -118.71953 | 27077 ft | 265 kts | 117° |
| 2026-04-30 07:32 | 35.05199 | -118.70004 | 27089 ft | 265 kts | 117° |
| 2026-04-30 07:32 | 35.04276 | -118.68059 | 27098 ft | 265 kts | 117° |
| 2026-04-30 07:32 | 35.03353 | -118.66111 | 27099 ft | 265 kts | 118° |
| 2026-04-30 07:32 | 35.02437 | -118.64182 | 27103 ft | 265 kts | 118° |
| 2026-04-30 07:33 | 35.01512 | -118.62234 | 27102 ft | 265 kts | 118° |
| 2026-04-30 07:33 | 35.00415 | -118.60420 | 27119 ft | 267 kts | 128° |
| 2026-04-30 07:33 | 34.99211 | -118.58694 | 27119 ft | 267 kts | 128° |
| 2026-04-30 07:33 | 34.98016 | -118.56956 | 27116 ft | 267 kts | 128° |
| 2026-04-30 07:34 | 34.96825 | -118.55210 | 27114 ft | 268 kts | 128° |
| 2026-04-30 07:34 | 34.95630 | -118.53465 | 27109 ft | 268 kts | 128° |
| 2026-04-30 07:34 | 34.94435 | -118.51724 | 27106 ft | 267 kts | 128° |
| 2026-04-30 07:34 | 34.93241 | -118.49984 | 27102 ft | 267 kts | 128° |
| 2026-04-30 07:35 | 34.92048 | -118.48247 | 27098 ft | 267 kts | 128° |
| 2026-04-30 07:35 | 34.90855 | -118.46509 | 27093 ft | 267 kts | 128° |
| 2026-04-30 07:35 | 34.89660 | -118.44771 | 27087 ft | 267 kts | 128° |
| 2026-04-30 07:35 | 34.88467 | -118.43036 | 27045 ft | 267 kts | 128° |
| 2026-04-30 07:36 | 34.87285 | -118.41318 | 27042 ft | 267 kts | 128° |
| 2026-04-30 07:36 | 34.86091 | -118.39583 | 27043 ft | 267 kts | 128° |
| 2026-04-30 07:36 | 34.84896 | -118.37848 | 27044 ft | 267 kts | 128° |
| 2026-04-30 07:36 | 34.83700 | -118.36113 | 27046 ft | 267 kts | 128° |
| 2026-04-30 07:37 | 34.82502 | -118.34375 | 27044 ft | 268 kts | 128° |
| 2026-04-30 07:37 | 34.81304 | -118.32637 | 27045 ft | 268 kts | 128° |
| 2026-04-30 07:37 | 34.80102 | -118.30895 | 27046 ft | 269 kts | 128° |
| 2026-04-30 07:37 | 34.78901 | -118.29155 | 27046 ft | 269 kts | 128° |
| 2026-04-30 07:38 | 34.77698 | -118.27415 | 27048 ft | 269 kts | 128° |
| 2026-04-30 07:38 | 34.76495 | -118.25673 | 27047 ft | 269 kts | 128° |
| 2026-04-30 07:38 | 34.75289 | -118.23929 | 27047 ft | 269 kts | 128° |
| 2026-04-30 07:38 | 34.74083 | -118.22185 | 27047 ft | 269 kts | 128° |
| 2026-04-30 07:39 | 34.72877 | -118.20443 | 27055 ft | 269 kts | 129° |
| 2026-04-30 07:39 | 34.71676 | -118.18709 | 27055 ft | 268 kts | 129° |
| 2026-04-30 07:39 | 34.70477 | -118.16978 | 27054 ft | 268 kts | 129° |
| 2026-04-30 07:39 | 34.69276 | -118.15246 | 27053 ft | 267 kts | 129° |
| 2026-04-30 07:40 | 34.68078 | -118.13517 | 27051 ft | 267 kts | 129° |
| 2026-04-30 07:40 | 34.66896 | -118.11813 | 27060 ft | 267 kts | 129° |
| 2026-04-30 07:40 | 34.65697 | -118.10086 | 27059 ft | 267 kts | 129° |
| 2026-04-30 07:40 | 34.64536 | -118.08329 | 27052 ft | 266 kts | 122° |
| 2026-04-30 07:41 | 34.63736 | -118.06322 | 27046 ft | 263 kts | 106° |
| 2026-04-30 07:41 | 34.63426 | -118.04149 | 27054 ft | 261 kts | 90° |
| 2026-04-30 07:41 | 34.63587 | -118.01962 | 27059 ft | 260 kts | 80° |
| 2026-04-30 07:41 | 34.63859 | -117.99792 | 27061 ft | 261 kts | 81° |
| 2026-04-30 07:42 | 34.64099 | -117.97606 | 27061 ft | 261 kts | 81° |
| 2026-04-30 07:42 | 34.64331 | -117.95418 | 27058 ft | 261 kts | 81° |
| 2026-04-30 07:42 | 34.64569 | -117.93228 | 27053 ft | 262 kts | 82° |
| 2026-04-30 07:42 | 34.64810 | -117.91033 | 27049 ft | 262 kts | 81° |
| 2026-04-30 07:43 | 34.65046 | -117.88870 | 27045 ft | 262 kts | 82° |
| 2026-04-30 07:43 | 34.65284 | -117.86677 | 27040 ft | 262 kts | 82° |
| 2026-04-30 07:43 | 34.65522 | -117.84477 | 27035 ft | 262 kts | 81° |
| 2026-04-30 07:43 | 34.65760 | -117.82285 | 27027 ft | 262 kts | 81° |
| 2026-04-30 07:44 | 34.65997 | -117.80088 | 27021 ft | 262 kts | 81° |
| 2026-04-30 07:44 | 34.66234 | -117.77891 | 27016 ft | 262 kts | 81° |
| 2026-04-30 07:44 | 34.66471 | -117.75691 | 26996 ft | 262 kts | 82° |
| 2026-04-30 07:44 | 34.66707 | -117.73496 | 26996 ft | 262 kts | 81° |
| 2026-04-30 07:45 | 34.66943 | -117.71299 | 26997 ft | 262 kts | 81° |
| 2026-04-30 07:45 | 34.67179 | -117.69095 | 27023 ft | 262 kts | 81° |
| 2026-04-30 07:45 | 34.67414 | -117.66900 | 27028 ft | 262 kts | 81° |
| 2026-04-30 07:45 | 34.67649 | -117.64700 | 27033 ft | 262 kts | 82° |
| 2026-04-30 07:46 | 34.67883 | -117.62502 | 27040 ft | 262 kts | 82° |
| 2026-04-30 07:46 | 34.68117 | -117.60304 | 27045 ft | 262 kts | 82° |
| 2026-04-30 07:46 | 34.68351 | -117.58107 | 27051 ft | 262 kts | 82° |
| 2026-04-30 07:46 | 34.68583 | -117.55913 | 27055 ft | 262 kts | 81° |
| 2026-04-30 07:47 | 34.68814 | -117.53737 | 27061 ft | 262 kts | 82° |
| 2026-04-30 07:47 | 34.69047 | -117.51538 | 27064 ft | 262 kts | 82° |
| 2026-04-30 07:47 | 34.69278 | -117.49338 | 27068 ft | 262 kts | 82° |
| 2026-04-30 07:47 | 34.69509 | -117.47139 | 27069 ft | 262 kts | 82° |
| 2026-04-30 07:48 | 34.69741 | -117.44934 | 27075 ft | 264 kts | 82° |
| 2026-04-30 07:48 | 34.69974 | -117.42724 | 27071 ft | 265 kts | 82° |
| 2026-04-30 07:48 | 34.70206 | -117.40499 | 27079 ft | 265 kts | 82° |
| 2026-04-30 07:48 | 34.70440 | -117.38271 | 27080 ft | 266 kts | 83° |
| 2026-04-30 07:49 | 34.70673 | -117.36036 | 27077 ft | 267 kts | 83° |
| 2026-04-30 07:49 | 34.70907 | -117.33794 | 27075 ft | 268 kts | 83° |
| 2026-04-30 07:49 | 34.71141 | -117.31540 | 27068 ft | 268 kts | 83° |
| 2026-04-30 07:49 | 34.71375 | -117.29288 | 27067 ft | 269 kts | 83° |
| 2026-04-30 07:50 | 34.71608 | -117.27036 | 27063 ft | 269 kts | 83° |
| 2026-04-30 07:50 | 34.71841 | -117.24781 | 27057 ft | 269 kts | 83° |
| 2026-04-30 07:50 | 34.72074 | -117.22520 | 27050 ft | 269 kts | 83° |
| 2026-04-30 07:50 | 34.72307 | -117.20261 | 27044 ft | 269 kts | 83° |
| 2026-04-30 07:51 | 34.72537 | -117.18026 | 26977 ft | 269 kts | 83° |
| 2026-04-30 07:51 | 34.72769 | -117.15763 | 26981 ft | 270 kts | 83° |
| 2026-04-30 07:51 | 34.73001 | -117.13493 | 26986 ft | 271 kts | 83° |
| 2026-04-30 07:51 | 34.73235 | -117.11217 | 26987 ft | 272 kts | 83° |
| 2026-04-30 07:52 | 34.73468 | -117.08934 | 26991 ft | 272 kts | 83° |
| 2026-04-30 07:52 | 34.73701 | -117.06647 | 26993 ft | 273 kts | 83° |
| 2026-04-30 07:52 | 34.73934 | -117.04357 | 26995 ft | 273 kts | 83° |
| 2026-04-30 07:52 | 34.74166 | -117.02062 | 26997 ft | 273 kts | 83° |
| 2026-04-30 07:53 | 34.74398 | -116.99775 | 26999 ft | 273 kts | 83° |
| 2026-04-30 07:53 | 34.74630 | -116.97481 | 26996 ft | 273 kts | 83° |
| 2026-04-30 07:53 | 34.74862 | -116.95182 | 26999 ft | 273 kts | 83° |
| 2026-04-30 07:53 | 34.75090 | -116.92920 | 27001 ft | 273 kts | 83° |
| 2026-04-30 07:54 | 34.75321 | -116.90620 | 27004 ft | 273 kts | 83° |
| 2026-04-30 07:54 | 34.75551 | -116.88325 | 27006 ft | 273 kts | 83° |
| 2026-04-30 07:54 | 34.75781 | -116.86030 | 27010 ft | 274 kts | 84° |
| 2026-04-30 07:54 | 34.76011 | -116.83729 | 27009 ft | 275 kts | 84° |
| 2026-04-30 07:55 | 34.76242 | -116.81416 | 27010 ft | 275 kts | 84° |
| 2026-04-30 07:55 | 34.76472 | -116.79106 | 27010 ft | 276 kts | 84° |
| 2026-04-30 07:55 | 34.76702 | -116.76794 | 27013 ft | 276 kts | 84° |
| 2026-04-30 07:55 | 34.76931 | -116.74479 | 27013 ft | 276 kts | 84° |
| 2026-04-30 07:56 | 34.77161 | -116.72155 | 27011 ft | 276 kts | 84° |
| 2026-04-30 07:56 | 34.77390 | -116.69834 | 27008 ft | 276 kts | 84° |
| 2026-04-30 07:56 | 34.77619 | -116.67518 | 26998 ft | 276 kts | 84° |
| 2026-04-30 07:56 | 34.77844 | -116.65227 | 27002 ft | 276 kts | 84° |
| 2026-04-30 07:57 | 34.78071 | -116.62914 | 27000 ft | 276 kts | 84° |
| 2026-04-30 07:57 | 34.78299 | -116.60594 | 26994 ft | 276 kts | 84° |
| 2026-04-30 07:57 | 34.78525 | -116.58276 | 26985 ft | 276 kts | 84° |
| 2026-04-30 07:57 | 34.78751 | -116.55960 | 26987 ft | 276 kts | 84° |
| 2026-04-30 07:58 | 34.78978 | -116.53634 | 26982 ft | 277 kts | 84° |
| 2026-04-30 07:58 | 34.79205 | -116.51304 | 26977 ft | 277 kts | 84° |
| 2026-04-30 07:58 | 34.79432 | -116.48967 | 26968 ft | 278 kts | 84° |
| 2026-04-30 07:58 | 34.79669 | -116.46666 | 26962 ft | 277 kts | 81° |
| 2026-04-30 07:59 | 34.80209 | -116.44419 | 26960 ft | 277 kts | 70° |
| 2026-04-30 07:59 | 34.80899 | -116.42227 | 26958 ft | 277 kts | 69° |
| 2026-04-30 07:59 | 34.81579 | -116.40032 | 26949 ft | 277 kts | 70° |
| 2026-04-30 08:00 | 34.82668 | -116.36353 | 26949 ft | 278 kts | 70° |
| 2026-04-30 08:00 | 34.83545 | -116.33417 | 26945 ft | 278 kts | 70° |
| 2026-04-30 08:00 | 34.84209 | -116.31202 | 26945 ft | 278 kts | 70° |
| 2026-04-30 08:00 | 34.84871 | -116.28984 | 26944 ft | 278 kts | 70° |
| 2026-04-30 08:01 | 34.85317 | -116.27488 | 26944 ft | 278 kts | 70° |
| 2026-04-30 08:01 | 34.85976 | -116.25277 | 26947 ft | 278 kts | 70° |
| 2026-04-30 08:01 | 34.86631 | -116.23083 | 26942 ft | 279 kts | 70° |
| 2026-04-30 08:01 | 34.87295 | -116.20852 | 26940 ft | 280 kts | 70° |
| 2026-04-30 08:02 | 34.88626 | -116.16375 | 26944 ft | 281 kts | 70° |
| 2026-04-30 08:02 | 34.89292 | -116.14133 | 26948 ft | 281 kts | 70° |
| 2026-04-30 08:03 | 34.90621 | -116.09650 | 26945 ft | 281 kts | 70° |
| 2026-04-30 08:03 | 34.91945 | -116.05183 | 26947 ft | 282 kts | 70° |
| 2026-04-30 08:03 | 34.92608 | -116.02940 | 26947 ft | 281 kts | 70° |
| 2026-04-30 08:04 | 34.93271 | -116.00697 | 26957 ft | 281 kts | 70° |
| 2026-04-30 08:04 | 34.93935 | -115.98451 | 26955 ft | 281 kts | 70° |
| 2026-04-30 08:04 | 34.94597 | -115.96205 | 26957 ft | 282 kts | 70° |
| 2026-04-30 08:04 | 34.95257 | -115.93957 | 26961 ft | 282 kts | 70° |
| 2026-04-30 08:05 | 34.95916 | -115.91700 | 26963 ft | 283 kts | 70° |
| 2026-04-30 08:05 | 34.96578 | -115.89436 | 26961 ft | 284 kts | 70° |
| 2026-04-30 08:05 | 34.97242 | -115.87164 | 26978 ft | 284 kts | 70° |
| 2026-04-30 08:05 | 34.97904 | -115.84897 | 26973 ft | 284 kts | 70° |
| 2026-04-30 08:06 | 34.98567 | -115.82622 | 26979 ft | 285 kts | 70° |
| 2026-04-30 08:06 | 34.99231 | -115.80347 | 26978 ft | 285 kts | 70° |
| 2026-04-30 08:06 | 34.99893 | -115.78074 | 26977 ft | 285 kts | 70° |
| 2026-04-30 08:06 | 35.00557 | -115.75792 | 26984 ft | 285 kts | 70° |
| 2026-04-30 08:07 | 35.01212 | -115.73542 | 26985 ft | 285 kts | 70° |
| 2026-04-30 08:07 | 35.01882 | -115.71234 | 26984 ft | 285 kts | 70° |
| 2026-04-30 08:07 | 35.02535 | -115.68985 | 26982 ft | 284 kts | 70° |
| 2026-04-30 08:07 | 35.03195 | -115.66712 | 26982 ft | 284 kts | 70° |
| 2026-04-30 08:08 | 35.03854 | -115.64437 | 26983 ft | 284 kts | 70° |
| 2026-04-30 08:08 | 35.04516 | -115.62154 | 26983 ft | 286 kts | 70° |
| 2026-04-30 08:08 | 35.05179 | -115.59866 | 26984 ft | 287 kts | 70° |
| 2026-04-30 08:08 | 35.05844 | -115.57563 | 26983 ft | 288 kts | 70° |
| 2026-04-30 08:09 | 35.06510 | -115.55259 | 26980 ft | 288 kts | 70° |
| 2026-04-30 08:09 | 35.07178 | -115.52946 | 26981 ft | 289 kts | 70° |
| 2026-04-30 08:09 | 35.07836 | -115.50662 | 26975 ft | 289 kts | 70° |
| 2026-04-30 08:09 | 35.08505 | -115.48342 | 26974 ft | 289 kts | 70° |
| 2026-04-30 08:10 | 35.09175 | -115.46015 | 26979 ft | 289 kts | 70° |
| 2026-04-30 08:10 | 35.09843 | -115.43696 | 26977 ft | 289 kts | 70° |
| 2026-04-30 08:10 | 35.10510 | -115.41376 | 26977 ft | 289 kts | 70° |
| 2026-04-30 08:10 | 35.11174 | -115.39064 | 26965 ft | 289 kts | 70° |
| 2026-04-30 08:11 | 35.11839 | -115.36748 | 26966 ft | 289 kts | 70° |
| 2026-04-30 08:11 | 35.12505 | -115.34425 | 26964 ft | 289 kts | 70° |
| 2026-04-30 08:11 | 35.13160 | -115.32139 | 26964 ft | 289 kts | 70° |
| 2026-04-30 08:11 | 35.13835 | -115.29786 | 26963 ft | 290 kts | 70° |
| 2026-04-30 08:12 | 35.14493 | -115.27485 | 26969 ft | 290 kts | 70° |
| 2026-04-30 08:12 | 35.15160 | -115.25151 | 26955 ft | 291 kts | 70° |
| 2026-04-30 08:12 | 35.15827 | -115.22814 | 26954 ft | 291 kts | 70° |
| 2026-04-30 08:12 | 35.16494 | -115.20475 | 26959 ft | 291 kts | 70° |
| 2026-04-30 08:13 | 35.17160 | -115.18141 | 26968 ft | 291 kts | 70° |
| 2026-04-30 08:13 | 35.17827 | -115.15805 | 26968 ft | 291 kts | 70° |
| 2026-04-30 08:13 | 35.18492 | -115.13469 | 26951 ft | 291 kts | 70° |
| 2026-04-30 08:13 | 35.19157 | -115.11127 | 26950 ft | 291 kts | 70° |
| 2026-04-30 08:14 | 35.19824 | -115.08781 | 26952 ft | 291 kts | 70° |
| 2026-04-30 08:14 | 35.20480 | -115.06472 | 26951 ft | 291 kts | 70° |
| 2026-04-30 08:14 | 35.21145 | -115.04128 | 26950 ft | 291 kts | 70° |
| 2026-04-30 08:14 | 35.21809 | -115.01786 | 26950 ft | 292 kts | 70° |
| 2026-04-30 08:15 | 35.22476 | -114.99430 | 26940 ft | 292 kts | 70° |
| 2026-04-30 08:15 | 35.23141 | -114.97083 | 26940 ft | 292 kts | 69° |
| 2026-04-30 08:15 | 35.23807 | -114.94728 | 26939 ft | 293 kts | 70° |
| 2026-04-30 08:15 | 35.24464 | -114.92402 | 26938 ft | 293 kts | 70° |
| 2026-04-30 08:16 | 35.25129 | -114.90046 | 26940 ft | 293 kts | 70° |
| 2026-04-30 08:16 | 35.25796 | -114.87681 | 26939 ft | 294 kts | 70° |
| 2026-04-30 08:16 | 35.26463 | -114.85312 | 26939 ft | 294 kts | 70° |
| 2026-04-30 08:16 | 35.27131 | -114.82940 | 26938 ft | 294 kts | 70° |
| 2026-04-30 08:17 | 35.27773 | -114.80659 | 26938 ft | 294 kts | 70° |
| 2026-04-30 08:17 | 35.28456 | -114.78230 | 26936 ft | 294 kts | 70° |
| 2026-04-30 08:17 | 35.29067 | -114.76053 | 26918 ft | 295 kts | 70° |
| 2026-04-30 08:17 | 35.29735 | -114.73672 | 26917 ft | 294 kts | 70° |
| 2026-04-30 08:18 | 35.30401 | -114.71299 | 26914 ft | 295 kts | 70° |
| 2026-04-30 08:18 | 35.31065 | -114.68927 | 26914 ft | 295 kts | 70° |
| 2026-04-30 08:18 | 35.31730 | -114.66550 | 26915 ft | 294 kts | 70° |
| 2026-04-30 08:18 | 35.32393 | -114.64181 | 26917 ft | 294 kts | 70° |
| 2026-04-30 08:19 | 35.33056 | -114.61809 | 26906 ft | 294 kts | 70° |
| 2026-04-30 08:19 | 35.33718 | -114.59437 | 26904 ft | 294 kts | 70° |
| 2026-04-30 08:19 | 35.34380 | -114.57062 | 26904 ft | 294 kts | 70° |
| 2026-04-30 08:19 | 35.35041 | -114.54692 | 26903 ft | 294 kts | 70° |
| 2026-04-30 08:20 | 35.35702 | -114.52320 | 26908 ft | 294 kts | 70° |
| 2026-04-30 08:20 | 35.36362 | -114.49948 | 26898 ft | 294 kts | 70° |
| 2026-04-30 08:20 | 35.37022 | -114.47570 | 26898 ft | 294 kts | 70° |
| 2026-04-30 08:20 | 35.37673 | -114.45227 | 26910 ft | 294 kts | 69° |
| 2026-04-30 08:21 | 35.38329 | -114.42859 | 26910 ft | 293 kts | 69° |
| 2026-04-30 08:21 | 35.38985 | -114.40498 | 26909 ft | 292 kts | 69° |
| 2026-04-30 08:21 | 35.39637 | -114.38144 | 26923 ft | 292 kts | 69° |
| 2026-04-30 08:21 | 35.40292 | -114.35780 | 26912 ft | 293 kts | 69° |
| 2026-04-30 08:22 | 35.40948 | -114.33409 | 26910 ft | 294 kts | 69° |
| 2026-04-30 08:22 | 35.41603 | -114.31036 | 26918 ft | 294 kts | 69° |
| 2026-04-30 08:22 | 35.42260 | -114.28656 | 26924 ft | 294 kts | 69° |
| 2026-04-30 08:22 | 35.42916 | -114.26277 | 26930 ft | 295 kts | 69° |
| 2026-04-30 08:23 | 35.43574 | -114.23891 | 26929 ft | 295 kts | 69° |
| 2026-04-30 08:23 | 35.44229 | -114.21509 | 26933 ft | 295 kts | 69° |
| 2026-04-30 08:23 | 35.44886 | -114.19123 | 26938 ft | 295 kts | 69° |
| 2026-04-30 08:23 | 35.45541 | -114.16737 | 26943 ft | 295 kts | 69° |
| 2026-04-30 08:24 | 35.46197 | -114.14351 | 26948 ft | 295 kts | 69° |
| 2026-04-30 08:24 | 35.46849 | -114.11973 | 26949 ft | 295 kts | 69° |
| 2026-04-30 08:24 | 35.47503 | -114.09586 | 26948 ft | 295 kts | 69° |
| 2026-04-30 08:24 | 35.48156 | -114.07204 | 26950 ft | 295 kts | 69° |
| 2026-04-30 08:25 | 35.48810 | -114.04816 | 26958 ft | 296 kts | 69° |
| 2026-04-30 08:25 | 35.49466 | -114.02421 | 26958 ft | 296 kts | 69° |
| 2026-04-30 08:25 | 35.50121 | -114.00021 | 26960 ft | 297 kts | 69° |
| 2026-04-30 08:25 | 35.50776 | -113.97619 | 26960 ft | 297 kts | 69° |
| 2026-04-30 08:26 | 35.51431 | -113.95214 | 26954 ft | 297 kts | 69° |
| 2026-04-30 08:26 | 35.52086 | -113.92810 | 26952 ft | 297 kts | 69° |
| 2026-04-30 08:26 | 35.52742 | -113.90403 | 26946 ft | 297 kts | 69° |
| 2026-04-30 08:26 | 35.53388 | -113.88024 | 26940 ft | 297 kts | 69° |
| 2026-04-30 08:27 | 35.54043 | -113.85616 | 26948 ft | 297 kts | 69° |
| 2026-04-30 08:27 | 35.54698 | -113.83203 | 26940 ft | 298 kts | 69° |
| 2026-04-30 08:27 | 35.55352 | -113.80790 | 26935 ft | 298 kts | 69° |
| 2026-04-30 08:27 | 35.56006 | -113.78377 | 26928 ft | 298 kts | 69° |
| 2026-04-30 08:28 | 35.56659 | -113.75963 | 26922 ft | 298 kts | 69° |
| 2026-04-30 08:28 | 35.57314 | -113.73546 | 26933 ft | 299 kts | 69° |
| 2026-04-30 08:28 | 35.57971 | -113.71118 | 26934 ft | 300 kts | 69° |
| 2026-04-30 08:28 | 35.58629 | -113.68678 | 26931 ft | 300 kts | 69° |
| 2026-04-30 08:29 | 35.59287 | -113.66239 | 26932 ft | 301 kts | 69° |
| 2026-04-30 08:29 | 35.59937 | -113.63825 | 26930 ft | 301 kts | 69° |
| 2026-04-30 08:29 | 35.60594 | -113.61385 | 26939 ft | 301 kts | 69° |
| 2026-04-30 08:29 | 35.61251 | -113.58941 | 26939 ft | 301 kts | 69° |
| 2026-04-30 08:30 | 35.61907 | -113.56501 | 26936 ft | 301 kts | 69° |
| 2026-04-30 08:30 | 35.62384 | -113.53993 | 26949 ft | 303 kts | 83° |
| 2026-04-30 08:30 | 35.62375 | -113.51403 | 26954 ft | 304 kts | 93° |
| 2026-04-30 08:30 | 35.62265 | -113.48804 | 26959 ft | 304 kts | 93° |
| 2026-04-30 08:31 | 35.62176 | -113.46206 | 26960 ft | 304 kts | 92° |
| 2026-04-30 08:31 | 35.62095 | -113.43618 | 26961 ft | 304 kts | 92° |
| 2026-04-30 08:31 | 35.62007 | -113.41014 | 26960 ft | 306 kts | 92° |
| 2026-04-30 08:31 | 35.61915 | -113.38399 | 26962 ft | 307 kts | 93° |
| 2026-04-30 08:32 | 35.61818 | -113.35724 | 26499 ft | 322 kts | 92° |
| 2026-04-30 08:32 | 35.61717 | -113.32962 | 25954 ft | 325 kts | 92° |
| 2026-04-30 08:32 | 35.61621 | -113.30204 | 25591 ft | 321 kts | 92° |
| 2026-04-30 08:32 | 35.61526 | -113.27476 | 25253 ft | 318 kts | 92° |
| 2026-04-30 08:33 | 35.61430 | -113.24773 | 24926 ft | 315 kts | 92° |
| 2026-04-30 08:33 | 35.61334 | -113.22119 | 24624 ft | 313 kts | 91° |
| 2026-04-30 08:33 | 35.61238 | -113.19456 | 24318 ft | 311 kts | 91° |
| 2026-04-30 08:33 | 35.61142 | -113.16814 | 24017 ft | 308 kts | 91° |
| 2026-04-30 08:34 | 35.61046 | -113.14187 | 23729 ft | 306 kts | 91° |
| 2026-04-30 08:34 | 35.60950 | -113.11592 | 23343 ft | 303 kts | 90° |
| 2026-04-30 08:34 | 35.60855 | -113.09008 | 22893 ft | 302 kts | 91° |
| 2026-04-30 08:34 | 35.60760 | -113.06433 | 22474 ft | 299 kts | 91° |
| 2026-04-30 08:35 | 35.60665 | -113.03887 | 22096 ft | 297 kts | 91° |
| 2026-04-30 08:35 | 35.60570 | -113.01365 | 21719 ft | 293 kts | 91° |
| 2026-04-30 08:35 | 35.60476 | -112.98899 | 21282 ft | 291 kts | 92° |
| 2026-04-30 08:35 | 35.60382 | -112.96421 | 20874 ft | 288 kts | 92° |
| 2026-04-30 08:36 | 35.60289 | -112.93971 | 20470 ft | 286 kts | 92° |
| 2026-04-30 08:36 | 35.60196 | -112.91542 | 20081 ft | 283 kts | 92° |
| 2026-04-30 08:36 | 35.60104 | -112.89133 | 19703 ft | 281 kts | 93° |
| 2026-04-30 08:36 | 35.60010 | -112.86745 | 19348 ft | 278 kts | 93° |
| 2026-04-30 08:37 | 35.59918 | -112.84380 | 19005 ft | 275 kts | 93° |
| 2026-04-30 08:37 | 35.59828 | -112.82072 | 18669 ft | 273 kts | 94° |
| 2026-04-30 08:37 | 35.59737 | -112.79748 | 18345 ft | 271 kts | 94° |
| 2026-04-30 08:37 | 35.59646 | -112.77479 | 17700 ft | 265 kts | 94° |
| 2026-04-30 08:38 | 35.59557 | -112.75225 | 17127 ft | 257 kts | 94° |
| 2026-04-30 08:38 | 35.59479 | -112.73133 | 17072 ft | 234 kts | 94° |
| 2026-04-30 08:38 | 35.59403 | -112.71199 | 17007 ft | 221 kts | 94° |
| 2026-04-30 08:38 | 35.59327 | -112.69320 | 16768 ft | 220 kts | 94° |
| 2026-04-30 08:39 | 35.59251 | -112.67447 | 16546 ft | 218 kts | 94° |
| 2026-04-30 08:39 | 35.59175 | -112.65589 | 16325 ft | 217 kts | 94° |
| 2026-04-30 08:39 | 35.59101 | -112.63752 | 16123 ft | 213 kts | 94° |
| 2026-04-30 08:39 | 35.59026 | -112.61931 | 15863 ft | 213 kts | 94° |
| 2026-04-30 08:40 | 35.58952 | -112.60120 | 15615 ft | 212 kts | 94° |
| 2026-04-30 08:40 | 35.58878 | -112.58316 | 15378 ft | 211 kts | 94° |
| 2026-04-30 08:40 | 35.58804 | -112.56523 | 15139 ft | 209 kts | 94° |
| 2026-04-30 08:40 | 35.58730 | -112.54744 | 14903 ft | 208 kts | 94° |
| 2026-04-30 08:41 | 35.58656 | -112.52973 | 14673 ft | 207 kts | 94° |
| 2026-04-30 08:41 | 35.58583 | -112.51215 | 14447 ft | 205 kts | 94° |
| 2026-04-30 08:41 | 35.58511 | -112.49494 | 14229 ft | 204 kts | 94° |
| 2026-04-30 08:41 | 35.58438 | -112.47758 | 14010 ft | 203 kts | 95° |
| 2026-04-30 08:42 | 35.58428 | -112.46035 | 13776 ft | 202 kts | 83° |
| 2026-04-30 08:42 | 35.58879 | -112.44438 | 13369 ft | 194 kts | 62° |
| 2026-04-30 08:42 | 35.59716 | -112.43133 | 12618 ft | 195 kts | 51° |
| 2026-04-30 08:42 | 35.60359 | -112.41678 | 11898 ft | 193 kts | 54° |
| 2026-04-30 08:43 | 35.61410 | -112.40777 | 11395 ft | 178 kts | 12° |
| 2026-04-30 08:43 | 35.62555 | -112.40930 | 11086 ft | 161 kts | 334° |
| 2026-04-30 08:43 | 35.63565 | -112.41488 | 10811 ft | 162 kts | 338° |
| 2026-04-30 08:43 | 35.64714 | -112.41725 | 10542 ft | 173 kts | 356° |
| 2026-04-30 08:44 | 35.65943 | -112.41713 | 10293 ft | 179 kts | 360° |
| 2026-04-30 08:44 | 35.67199 | -112.41678 | 10044 ft | 181 kts | 359° |
| 2026-04-30 08:44 | 35.68443 | -112.41654 | 9928 ft | 177 kts | 359° |
| 2026-04-30 08:44 | 35.69642 | -112.41357 | 9844 ft | 176 kts | 22° |
| 2026-04-30 08:45 | 35.70634 | -112.40553 | 9845 ft | 171 kts | 39° |
| 2026-04-30 08:45 | 35.71529 | -112.39607 | 9837 ft | 168 kts | 38° |
| 2026-04-30 08:45 | 35.72419 | -112.38683 | 9831 ft | 167 kts | 39° |
| 2026-04-30 08:45 | 35.73301 | -112.37762 | 9829 ft | 165 kts | 39° |
| 2026-04-30 08:46 | 35.74177 | -112.36844 | 9790 ft | 167 kts | 39° |
| 2026-04-30 08:46 | 35.75079 | -112.35897 | 9640 ft | 173 kts | 39° |
| 2026-04-30 08:46 | 35.76006 | -112.34923 | 9490 ft | 176 kts | 39° |
| 2026-04-30 08:46 | 35.76923 | -112.33959 | 9351 ft | 166 kts | 39° |
| 2026-04-30 08:47 | 35.77771 | -112.33072 | 9194 ft | 156 kts | 39° |
| 2026-04-30 08:47 | 35.78583 | -112.32224 | 9090 ft | 150 kts | 39° |
| 2026-04-30 08:47 | 35.79364 | -112.31404 | 8986 ft | 146 kts | 39° |
| 2026-04-30 08:47 | 35.80129 | -112.30600 | 8887 ft | 144 kts | 39° |
| 2026-04-30 08:48 | 35.80867 | -112.29825 | 8850 ft | 137 kts | 39° |
| 2026-04-30 08:48 | 35.81579 | -112.29080 | 8802 ft | 133 kts | 38° |
| 2026-04-30 08:48 | 35.82282 | -112.28341 | 8737 ft | 132 kts | 39° |
| 2026-04-30 08:48 | 35.82977 | -112.27612 | 8655 ft | 130 kts | 38° |
| 2026-04-30 08:49 | 35.83666 | -112.26890 | 8573 ft | 130 kts | 39° |
| 2026-04-30 08:49 | 35.84355 | -112.26164 | 8488 ft | 130 kts | 39° |
| 2026-04-30 08:49 | 35.85045 | -112.25437 | 8403 ft | 130 kts | 39° |
| 2026-04-30 08:49 | 35.85737 | -112.24710 | 8319 ft | 131 kts | 40° |
| 2026-04-30 08:50 | 35.86194 | -112.24228 | 8393 ft | 130 kts | 40° |
| 2026-04-30 08:50 | 35.86883 | -112.23502 | 8312 ft | 130 kts | 39° |
| 2026-04-30 08:50 | 35.87572 | -112.22776 | 8231 ft | 130 kts | 39° |
| 2026-04-30 08:50 | 35.88256 | -112.22056 | 8202 ft | 127 kts | 40° |
| 2026-04-30 08:51 | 35.88920 | -112.21359 | 8198 ft | 124 kts | 39° |
| 2026-04-30 08:51 | 35.89569 | -112.20675 | 8199 ft | 117 kts | 40° |
| 2026-04-30 08:51 | 35.90149 | -112.20067 | 8190 ft | 104 kts | 39° |
| 2026-04-30 08:51 | 35.90561 | -112.19637 | 8192 ft | 99 kts | 38° |
| 2026-04-30 08:52 | 35.91068 | -112.19107 | 8189 ft | 97 kts | 39° |
| 2026-04-30 08:52 | 35.91602 | -112.18550 | 8203 ft | 103 kts | 38° |
| 2026-04-30 08:52 | 35.92160 | -112.17959 | 8208 ft | 108 kts | 39° |
| 2026-04-30 08:52 | 35.92740 | -112.17349 | 8130 ft | 115 kts | 39° |
| 2026-04-30 08:53 | 35.93344 | -112.16707 | 7649 ft | 112 kts | 41° |
| 2026-04-30 08:53 | 35.93918 | -112.16080 | 7007 ft | 109 kts | 40° |
| 2026-04-30 08:53 | 35.94493 | -112.15483 | 6567 ft | 108 kts | 41° |
| 2026-04-30 08:53 | 35.95022 | -112.14922 | 6570 ft | 84 kts | 40° |
| 2026-04-30 08:54 | 35.95305 | -112.14621 | 6576 ft | 22 kts | 41° |
| 2026-04-30 08:54 | 35.95411 | -112.14509 | 6581 ft | 20 kts | 40° |
| 2026-04-30 08:54 | 35.95517 | -112.14399 | 6593 ft | 20 kts | 40° |
| 2026-04-30 08:54 | 35.95618 | -112.14291 | 6594 ft | 15 kts | 42° |
| 2026-04-30 08:55 | 35.95659 | -112.14161 | 6601 ft | 20 kts | 129° |
| 2026-04-30 08:55 | 35.95700 | -112.14027 | 6601 ft | 20 kts | 39° |
| 2026-04-30 08:55 | 35.95804 | -112.13918 | 6603 ft | 20 kts | 40° |
| 2026-04-30 08:55 | 35.95911 | -112.13804 | 6604 ft | 20 kts | 40° |
| 2026-04-30 08:56 | 35.96014 | -112.13696 | 6614 ft | 20 kts | 40° |
| 2026-04-30 08:56 | 35.96093 | -112.13613 | 6615 ft | 9 kts | 40° |
| 2026-04-30 08:56 | 35.96130 | -112.13574 | 6615 ft | 11 kts | 40° |
| 2026-04-30 08:56 | 35.96150 | -112.13507 | 6615 ft | 3 kts | 129° |
| 2026-04-30 08:57 | 35.96107 | -112.13488 | 6615 ft | 2 kts | 210° |
| 2026-04-30 08:57 | 35.96105 | -112.13490 | 6615 ft | 0 kts | 220° |